createdAt,value
2022-10-29T00:00:51.624Z,18.57
2022-10-29T00:03:20.667Z,18.54
2022-10-29T00:05:59.097Z,18.50
2022-10-29T00:08:27.877Z,18.48
2022-10-29T00:10:55.699Z,18.45
2022-10-29T00:13:25.238Z,18.42
2022-10-29T00:15:53.040Z,18.40
2022-10-29T00:18:20.813Z,18.39
2022-10-29T00:20:49.760Z,18.36
2022-10-29T00:23:17.539Z,18.35
2022-10-29T00:25:45.348Z,18.32
2022-10-29T00:28:13.199Z,18.30
2022-10-29T00:30:42.419Z,18.29
2022-10-29T00:33:10.247Z,18.27
2022-10-29T00:35:38.003Z,18.23
2022-10-29T00:38:05.929Z,18.25
2022-10-29T00:40:37.859Z,18.23
2022-10-29T00:43:15.758Z,18.21
2022-10-29T00:45:49.845Z,18.25
2022-10-29T00:48:17.887Z,18.26
2022-10-29T00:50:47.594Z,18.28
2022-10-29T00:53:17.565Z,18.29
2022-10-29T00:55:45.415Z,18.31
2022-10-29T00:58:13.700Z,18.32
2022-10-29T01:00:41.535Z,18.33
2022-10-29T01:03:10.840Z,18.33
2022-10-29T01:05:39.596Z,18.34
2022-10-29T01:08:07.926Z,18.34
2022-10-29T01:10:48.350Z,18.33
2022-10-29T01:13:42.438Z,18.29
2022-10-29T01:16:22.114Z,18.31
2022-10-29T01:19:00.794Z,18.32
2022-10-29T01:21:43.734Z,18.27
2022-10-29T01:24:36.832Z,18.24
2022-10-29T01:27:28.313Z,18.22
2022-10-29T01:30:07.261Z,18.23
2022-10-29T01:32:48.699Z,18.19
2022-10-29T01:35:20.910Z,18.18
2022-10-29T01:38:02.304Z,18.14
2022-10-29T01:40:36.249Z,18.10
2022-10-29T01:43:09.756Z,18.07
2022-10-29T01:45:42.839Z,18.03
2022-10-29T01:48:15.301Z,17.99
2022-10-29T01:50:46.694Z,17.95
2022-10-29T01:53:14.920Z,17.91
2022-10-29T01:55:42.672Z,17.88
2022-10-29T01:58:12.815Z,17.82
2022-10-29T02:00:50.104Z,17.80
2022-10-29T02:03:34.549Z,17.75
2022-10-29T02:06:09.981Z,17.75
2022-10-29T02:08:48.356Z,17.72
2022-10-29T02:11:22.983Z,17.70
2022-10-29T02:13:58.157Z,17.67
2022-10-29T02:16:27.779Z,17.65
2022-10-29T02:18:58.066Z,17.63
2022-10-29T02:21:25.896Z,17.61
2022-10-29T02:23:53.781Z,17.57
2022-10-29T02:26:21.884Z,17.55
2022-10-29T02:28:49.781Z,17.53
2022-10-29T02:31:17.673Z,17.51
2022-10-29T02:33:45.715Z,17.48
2022-10-29T02:36:14.885Z,17.47
2022-10-29T02:38:42.671Z,17.45
2022-10-29T02:41:10.489Z,17.44
2022-10-29T02:43:38.288Z,17.41
2022-10-29T02:46:14.379Z,17.38
2022-10-29T02:48:42.320Z,17.37
2022-10-29T02:51:10.466Z,17.33
2022-10-29T02:53:39.749Z,17.32
2022-10-29T02:56:08.633Z,17.29
2022-10-29T02:58:36.828Z,17.30
2022-10-29T03:01:05.286Z,17.30
2022-10-29T03:03:33.374Z,17.31
2022-10-29T03:06:01.198Z,17.33
2022-10-29T03:08:29.135Z,17.35
2022-10-29T03:10:58.325Z,17.37
2022-10-29T03:13:26.285Z,17.37
2022-10-29T03:15:54.104Z,17.38
2022-10-29T03:18:21.985Z,17.38
2022-10-29T03:20:49.753Z,17.38
2022-10-29T03:23:17.640Z,17.39
2022-10-29T03:25:45.657Z,17.38
2022-10-29T03:28:14.804Z,17.38
2022-10-29T03:30:43.108Z,17.37
2022-10-29T03:33:10.958Z,17.38
2022-10-29T03:35:38.806Z,17.37
2022-10-29T03:38:06.668Z,17.37
2022-10-29T03:40:34.420Z,17.37
2022-10-29T03:43:02.250Z,17.37
2022-10-29T03:45:32.635Z,17.36
2022-10-29T03:48:00.347Z,17.32
2022-10-29T03:50:28.124Z,17.29
2022-10-29T03:52:55.850Z,17.26
2022-10-29T03:55:23.653Z,17.23
2022-10-29T03:57:51.439Z,17.22
2022-10-29T04:00:19.515Z,17.18
2022-10-29T04:02:48.738Z,17.17
2022-10-29T04:05:16.700Z,17.14
2022-10-29T04:07:44.533Z,17.11
2022-10-29T04:10:12.350Z,17.08
2022-10-29T04:12:40.186Z,17.04
2022-10-29T04:15:08.863Z,17.01
2022-10-29T04:17:36.648Z,16.99
2022-10-29T04:20:13.756Z,16.96
2022-10-29T04:28:45.473Z,16.88
2022-10-29T04:31:13.685Z,16.85
2022-10-29T04:33:41.461Z,16.84
2022-10-29T04:36:11.666Z,16.82
2022-10-29T04:38:42.313Z,16.80
2022-10-29T04:41:10.152Z,16.78
2022-10-29T04:43:37.941Z,16.77
2022-10-29T04:46:06.024Z,16.75
2022-10-29T04:48:33.966Z,16.74
2022-10-29T04:51:01.773Z,16.72
2022-10-29T04:53:31.087Z,16.71
2022-10-29T04:56:01.403Z,16.70
2022-10-29T04:58:29.396Z,16.68
2022-10-29T05:01:02.865Z,16.66
2022-10-29T05:03:30.853Z,16.64
2022-10-29T05:05:58.671Z,16.63
2022-10-29T05:08:26.460Z,16.61
2022-10-29T05:10:55.696Z,16.61
2022-10-29T05:13:24.882Z,16.57
2022-10-29T05:15:53.792Z,16.57
2022-10-29T05:18:21.683Z,16.56
2022-10-29T05:20:49.467Z,16.58
2022-10-29T05:23:17.270Z,16.60
2022-10-29T05:25:48.996Z,16.63
2022-10-29T05:28:20.157Z,16.64
2022-10-29T05:30:50.616Z,16.66
2022-10-29T05:33:20.433Z,16.67
2022-10-29T05:35:48.237Z,16.68
2022-10-29T05:38:16.814Z,16.69
2022-10-29T05:40:45.236Z,16.71
2022-10-29T05:43:14.009Z,16.72
2022-10-29T05:45:43.795Z,16.72
2022-10-29T05:50:40.467Z,16.76
2022-10-29T05:53:11.105Z,16.77
2022-10-29T05:55:39.906Z,16.78
2022-10-29T05:58:10.627Z,16.79
2022-10-29T06:00:40.751Z,16.80
2022-10-29T06:03:14.180Z,16.80
2022-10-29T06:05:42.093Z,16.83
2022-10-29T06:08:10.363Z,16.83
2022-10-29T06:10:38.216Z,16.81
2022-10-29T06:13:11.455Z,16.77
2022-10-29T06:15:39.311Z,16.75
2022-10-29T06:18:07.480Z,16.73
2022-10-29T06:20:37.359Z,16.71
2022-10-29T06:23:05.580Z,16.69
2022-10-29T06:25:33.801Z,16.67
2022-10-29T06:28:02.894Z,16.66
2022-10-29T06:30:31.076Z,16.65
2022-10-29T06:32:59.427Z,16.65
2022-10-29T06:35:27.478Z,16.63
2022-10-29T06:37:56.965Z,16.64
2022-10-29T06:40:25.051Z,16.64
2022-10-29T06:42:59.957Z,16.64
2022-10-29T06:45:28.149Z,16.63
2022-10-29T06:47:56.311Z,16.64
2022-10-29T06:50:24.729Z,16.63
2022-10-29T06:52:59.349Z,16.63
2022-10-29T06:55:28.210Z,16.64
2022-10-29T06:58:01.846Z,16.63
2022-10-29T07:00:30.846Z,16.65
2022-10-29T07:02:59.072Z,16.64
2022-10-29T07:05:27.934Z,16.65
2022-10-29T07:07:58.638Z,16.67
2022-10-29T07:10:28.123Z,16.67
2022-10-29T07:12:56.246Z,16.67
2022-10-29T07:15:27.584Z,16.68
2022-10-29T07:17:59.003Z,16.68
2022-10-29T07:20:27.933Z,16.70
2022-10-29T07:22:58.235Z,16.72
2022-10-29T07:25:26.484Z,16.72
2022-10-29T07:27:54.587Z,16.76
2022-10-29T07:30:23.156Z,16.79
2022-10-29T07:32:50.907Z,16.83
2022-10-29T07:35:18.732Z,16.89
2022-10-29T07:37:46.542Z,17.00
2022-10-29T07:40:15.842Z,17.12
2022-10-29T07:42:43.622Z,17.19
2022-10-29T07:45:11.940Z,17.26
2022-10-29T07:47:39.854Z,17.31
2022-10-29T07:50:08.639Z,17.36
2022-10-29T07:52:36.512Z,17.39
2022-10-29T07:55:04.358Z,17.44
2022-10-29T07:57:33.569Z,17.48
2022-10-29T08:00:01.352Z,17.51
2022-10-29T08:02:29.214Z,17.55
2022-10-29T08:04:56.998Z,17.60
2022-10-29T08:07:24.861Z,17.64
2022-10-29T08:09:52.728Z,17.69
2022-10-29T08:12:21.352Z,17.74
2022-10-29T08:14:51.851Z,17.78
2022-10-29T08:17:19.617Z,17.83
2022-10-29T08:19:47.350Z,17.88
2022-10-29T08:22:15.184Z,17.94
2022-10-29T08:24:42.947Z,17.98
2022-10-29T08:27:10.696Z,18.01
2022-10-29T08:29:38.459Z,18.03
2022-10-29T08:32:07.761Z,18.08
2022-10-29T08:34:35.609Z,18.11
2022-10-29T08:37:03.512Z,18.15
2022-10-29T08:39:31.284Z,18.21
2022-10-29T08:42:11.490Z,18.27
2022-10-29T08:45:12.174Z,18.29
2022-10-29T08:47:56.120Z,18.36
2022-10-29T08:50:29.893Z,18.43
2022-10-29T08:53:22.462Z,18.50
2022-10-29T08:55:47.441Z,18.56
2022-10-29T08:58:24.644Z,18.62
2022-10-29T09:00:57.132Z,18.72
2022-10-29T09:03:29.673Z,18.78
2022-10-29T09:06:08.914Z,18.82
2022-10-29T09:08:50.402Z,18.88
2022-10-29T09:11:34.977Z,18.95
2022-10-29T09:14:19.207Z,19.02
2022-10-29T09:16:53.827Z,19.07
2022-10-29T09:19:45.038Z,19.08
2022-10-29T09:22:21.707Z,19.09
2022-10-29T09:24:59.357Z,19.13
2022-10-29T09:27:42.116Z,19.20
2022-10-29T09:30:15.281Z,19.29
2022-10-29T09:32:48.649Z,19.32
2022-10-29T09:35:20.348Z,19.35
2022-10-29T09:37:51.126Z,19.41
2022-10-29T09:40:31.241Z,19.47
2022-10-29T09:43:00.441Z,19.57
2022-10-29T09:45:42.937Z,19.64
2022-10-29T09:48:18.169Z,19.76
2022-10-29T09:50:59.009Z,19.86
2022-10-29T09:53:26.923Z,20.01
2022-10-29T09:55:54.849Z,20.08
2022-10-29T09:58:24.416Z,20.15
2022-10-29T10:00:53.158Z,20.24
2022-10-29T10:03:26.337Z,20.32
2022-10-29T10:06:01.352Z,20.38
2022-10-29T10:08:29.987Z,20.45
2022-10-29T10:11:00.433Z,20.50
2022-10-29T10:13:30.283Z,20.57
2022-10-29T10:15:59.991Z,20.63
2022-10-29T10:18:29.394Z,20.72
2022-10-29T10:21:08.000Z,20.79
2022-10-29T10:23:44.852Z,20.90
2022-10-29T10:26:31.780Z,21.00
2022-10-29T10:29:16.478Z,21.13
2022-10-29T10:31:46.083Z,21.21
2022-10-29T10:34:21.462Z,21.28
2022-10-29T10:36:54.942Z,21.41
2022-10-29T10:39:28.758Z,21.48
2022-10-29T10:41:58.355Z,21.54
2022-10-29T10:44:27.577Z,21.63
2022-10-29T10:47:00.370Z,21.71
2022-10-29T10:49:33.403Z,21.77
2022-10-29T10:52:06.295Z,21.82
2022-10-29T10:54:38.216Z,21.86
2022-10-29T10:57:20.811Z,21.84
2022-10-29T10:59:58.474Z,21.88
2022-10-29T11:02:36.584Z,21.94
2022-10-29T11:05:13.301Z,22.02
2022-10-29T11:07:47.601Z,22.06
2022-10-29T11:10:18.416Z,22.11
2022-10-29T11:12:49.267Z,22.16
2022-10-29T11:15:24.507Z,22.24
2022-10-29T11:17:56.310Z,22.31
2022-10-29T11:20:28.033Z,22.36
2022-10-29T11:23:13.136Z,22.40
2022-10-29T11:25:45.687Z,22.49
2022-10-29T11:28:24.542Z,22.55
2022-10-29T11:30:59.232Z,22.58
2022-10-29T11:33:38.634Z,22.61
2022-10-29T11:36:16.202Z,22.63
2022-10-29T11:38:51.143Z,22.66
2022-10-29T11:41:26.859Z,22.71
2022-10-29T11:43:54.769Z,22.77
2022-10-29T11:46:33.476Z,22.84
2022-10-29T11:49:12.867Z,22.88
2022-10-29T11:51:52.787Z,22.90
2022-10-29T11:54:38.329Z,22.91
2022-10-29T11:57:12.936Z,22.93
2022-10-29T11:59:58.937Z,22.93
2022-10-29T12:02:41.614Z,22.93
2022-10-29T12:05:18.531Z,22.95
2022-10-29T12:08:04.021Z,23.00
2022-10-29T12:10:46.772Z,23.00
2022-10-29T12:13:27.353Z,23.01
2022-10-29T12:16:08.110Z,23.05
2022-10-29T12:18:45.585Z,23.08
2022-10-29T12:21:23.325Z,23.10
2022-10-29T12:24:02.202Z,23.10
2022-10-29T12:26:39.216Z,23.10
2022-10-29T12:29:15.821Z,23.12
2022-10-29T12:31:52.345Z,23.16
2022-10-29T12:34:28.104Z,23.19
2022-10-29T12:37:07.233Z,23.23
2022-10-29T12:39:38.245Z,23.29
2022-10-29T12:42:16.329Z,23.34
2022-10-29T12:44:52.618Z,23.46
2022-10-29T12:47:25.611Z,23.55
2022-10-29T12:50:07.156Z,23.61
2022-10-29T12:52:41.764Z,23.66
2022-10-29T12:55:13.268Z,23.66
2022-10-29T12:57:42.563Z,23.68
2022-10-29T13:00:47.634Z,23.64
2022-10-29T13:03:48.882Z,23.64
2022-10-29T13:06:46.260Z,23.67
2022-10-29T13:09:19.489Z,23.71
2022-10-29T13:11:49.524Z,23.75
2022-10-29T13:14:25.048Z,23.74
2022-10-29T13:16:54.516Z,23.75
2022-10-29T13:19:35.847Z,23.81
2022-10-29T13:22:26.992Z,23.85
2022-10-29T13:25:29.273Z,23.85
2022-10-29T13:27:57.229Z,23.92
2022-10-29T13:30:28.612Z,23.95
2022-10-29T13:32:57.724Z,23.95
2022-10-29T13:35:42.332Z,23.91
2022-10-29T13:38:17.399Z,23.94
2022-10-29T13:41:11.839Z,23.91
2022-10-29T13:43:42.463Z,23.92
2022-10-29T13:46:34.503Z,23.85
2022-10-29T13:49:09.698Z,23.87
2022-10-29T13:51:45.033Z,23.86
2022-10-29T13:54:21.854Z,23.83
2022-10-29T13:56:54.066Z,23.80
2022-10-29T13:59:29.199Z,23.80
2022-10-29T14:02:14.712Z,23.77
2022-10-29T14:04:48.009Z,23.78
2022-10-29T14:07:21.759Z,23.83
2022-10-29T14:09:55.159Z,23.89
2022-10-29T14:12:28.653Z,23.96
2022-10-29T14:15:03.612Z,23.97
2022-10-29T14:17:32.848Z,23.95
2022-10-29T14:20:00.783Z,23.91
2022-10-29T14:22:37.884Z,23.82
2022-10-29T14:25:31.058Z,23.77
2022-10-29T14:28:16.194Z,23.73
2022-10-29T14:30:44.130Z,23.75
2022-10-29T14:33:24.648Z,23.73
2022-10-29T14:35:54.500Z,23.74
2022-10-29T14:38:26.342Z,23.73
2022-10-29T14:40:54.288Z,23.71
2022-10-29T14:43:27.267Z,23.69
2022-10-29T14:45:56.728Z,23.69
2022-10-29T14:48:26.046Z,23.67
2022-10-29T14:50:56.626Z,23.63
2022-10-29T14:53:32.665Z,23.61
2022-10-29T14:56:04.036Z,23.59
2022-10-29T14:58:34.332Z,23.57
2022-10-29T15:01:05.831Z,23.55
2022-10-29T15:03:36.561Z,23.52
2022-10-29T15:06:17.048Z,23.42
2022-10-29T15:08:46.386Z,23.39
2022-10-29T15:11:35.117Z,23.24
2022-10-29T15:14:03.788Z,23.21
2022-10-29T15:16:32.104Z,23.15
2022-10-29T15:19:02.263Z,23.11
2022-10-29T15:21:32.817Z,23.05
2022-10-29T15:24:06.368Z,22.99
2022-10-29T15:26:36.054Z,22.93
2022-10-29T15:29:11.239Z,22.86
2022-10-29T15:31:45.473Z,22.80
2022-10-29T15:34:20.486Z,22.74
2022-10-29T15:36:49.956Z,22.70
2022-10-29T15:39:26.593Z,22.65
2022-10-29T15:41:57.683Z,22.60
2022-10-29T15:44:31.450Z,22.55
2022-10-29T15:47:00.986Z,22.49
2022-10-29T15:49:32.681Z,22.43
2022-10-29T15:52:05.171Z,22.35
2022-10-29T15:54:34.847Z,22.31
2022-10-29T15:57:02.703Z,22.27
2022-10-29T15:59:30.489Z,22.23
2022-10-29T16:01:58.419Z,22.20
2022-10-29T16:04:26.307Z,22.16
2022-10-29T16:06:56.249Z,22.16
2022-10-29T16:09:24.068Z,22.13
2022-10-29T16:11:52.095Z,22.12
2022-10-29T16:14:20.067Z,22.06
2022-10-29T16:16:47.955Z,22.02
2022-10-29T16:19:15.746Z,21.98
2022-10-29T16:21:43.556Z,21.96
2022-10-29T16:24:15.737Z,21.93
2022-10-29T16:26:43.601Z,21.87
2022-10-29T16:29:11.820Z,21.84
2022-10-29T16:31:39.741Z,21.81
2022-10-29T16:34:14.393Z,21.77
2022-10-29T16:36:42.277Z,21.74
2022-10-29T16:39:10.069Z,21.69
2022-10-29T16:41:39.492Z,21.63
2022-10-29T16:44:07.286Z,21.57
2022-10-29T16:46:35.056Z,21.51
2022-10-29T16:49:02.900Z,21.46
2022-10-29T16:51:30.719Z,21.39
2022-10-29T16:53:58.655Z,21.34
2022-10-29T16:56:26.476Z,21.26
2022-10-29T16:59:01.733Z,21.18
2022-10-29T17:01:30.009Z,21.13
2022-10-29T17:03:57.951Z,21.09
2022-10-29T17:06:25.860Z,21.05
2022-10-29T17:08:53.718Z,20.98
2022-10-29T17:11:21.520Z,20.92
2022-10-29T17:13:49.404Z,20.85
2022-10-29T17:16:18.997Z,20.79
2022-10-29T17:18:50.723Z,20.76
2022-10-29T17:21:19.264Z,20.72
2022-10-29T17:23:47.194Z,20.67
2022-10-29T17:26:14.925Z,20.65
2022-10-29T17:28:42.785Z,20.63
2022-10-29T17:31:11.868Z,20.60
2022-10-29T17:33:41.057Z,20.57
2022-10-29T17:36:12.774Z,20.52
2022-10-29T17:38:40.619Z,20.49
2022-10-29T17:41:08.615Z,20.48
2022-10-29T17:43:36.490Z,20.48
2022-10-29T17:46:04.713Z,20.49
2022-10-29T17:48:32.691Z,20.50
2022-10-29T17:51:03.486Z,20.49
2022-10-29T17:53:32.299Z,20.47
2022-10-29T17:56:00.732Z,20.46
2022-10-29T17:58:29.048Z,20.44
2022-10-29T18:01:03.517Z,20.41
2022-10-29T18:03:31.444Z,20.37
2022-10-29T18:06:02.073Z,20.35
2022-10-29T18:08:30.740Z,20.32
2022-10-29T18:11:04.178Z,20.31
2022-10-29T18:13:33.485Z,20.29
2022-10-29T18:16:02.508Z,20.27
2022-10-29T18:18:38.309Z,20.19
2022-10-29T18:21:21.104Z,20.12
2022-10-29T18:23:49.739Z,20.05
2022-10-29T18:26:23.277Z,19.99
2022-10-29T18:28:51.314Z,19.94
2022-10-29T18:31:19.992Z,19.87
2022-10-29T18:33:48.396Z,19.83
2022-10-29T18:36:17.777Z,19.73
2022-10-29T18:38:49.901Z,19.66
2022-10-29T18:41:17.768Z,19.62
2022-10-29T18:43:45.699Z,19.58
2022-10-29T18:46:13.600Z,19.51
2022-10-29T18:48:42.923Z,19.51
2022-10-29T18:51:12.451Z,19.46
2022-10-29T18:53:41.913Z,19.41
2022-10-29T18:56:12.013Z,19.38
2022-10-29T18:58:40.502Z,19.35
2022-10-29T19:01:10.487Z,19.33
2022-10-29T19:03:39.306Z,19.31
2022-10-29T19:06:09.543Z,19.30
2022-10-29T19:08:38.507Z,19.28
2022-10-29T19:11:09.540Z,19.22
2022-10-29T19:13:37.744Z,19.19
2022-10-29T19:16:07.849Z,19.13
2022-10-29T19:18:36.748Z,19.13
2022-10-29T19:21:06.110Z,19.14
2022-10-29T19:23:34.574Z,19.19
2022-10-29T19:26:04.930Z,19.24
2022-10-29T19:28:34.752Z,19.27
2022-10-29T19:31:03.424Z,19.30
2022-10-29T19:33:31.362Z,19.33
2022-10-29T19:35:59.377Z,19.36
2022-10-29T19:38:27.258Z,19.39
2022-10-29T19:40:57.054Z,19.40
2022-10-29T19:43:25.629Z,19.41
2022-10-29T19:45:54.817Z,19.41
2022-10-29T19:48:22.659Z,19.43
2022-10-29T19:50:55.105Z,19.43
2022-10-29T19:53:23.651Z,19.44
2022-10-29T19:55:51.560Z,19.45
2022-10-29T19:58:20.008Z,19.49
2022-10-29T20:00:48.090Z,19.51
2022-10-29T20:03:18.800Z,19.57
2022-10-29T20:05:47.551Z,19.59
2022-10-29T20:08:16.595Z,19.58
2022-10-29T20:10:44.649Z,19.56
2022-10-29T20:13:12.439Z,19.55
2022-10-29T20:15:41.095Z,19.55
2022-10-29T20:18:08.909Z,19.55
2022-10-29T20:20:38.087Z,19.54
2022-10-29T20:23:06.036Z,19.52
2022-10-29T20:25:33.991Z,19.50
2022-10-29T20:28:02.756Z,19.49
2022-10-29T20:30:31.448Z,19.46
2022-10-29T20:32:59.803Z,19.43
2022-10-29T20:35:27.802Z,19.42
2022-10-29T20:38:00.445Z,19.38
2022-10-29T20:40:28.551Z,19.35
2022-10-29T20:42:56.450Z,19.33
2022-10-29T20:45:24.520Z,19.29
2022-10-29T20:47:52.317Z,19.24
2022-10-29T20:50:20.138Z,19.19
2022-10-29T20:52:48.981Z,19.14
2022-10-29T20:55:18.509Z,19.11
2022-10-29T20:57:46.342Z,19.08
2022-10-29T21:00:15.038Z,19.04
2022-10-29T21:02:42.877Z,19.03
2022-10-29T21:05:10.809Z,19.02
2022-10-29T21:07:40.297Z,19.01
2022-10-29T21:10:09.387Z,19.00
2022-10-29T21:12:38.582Z,19.01
2022-10-29T21:15:07.297Z,18.98
2022-10-29T21:17:35.181Z,18.96
2022-10-29T21:20:02.950Z,18.97
2022-10-29T21:22:30.755Z,18.97
2022-10-29T21:24:58.537Z,18.98
2022-10-29T21:27:26.350Z,19.01
2022-10-29T21:29:55.631Z,19.03
2022-10-29T21:32:23.399Z,19.04
2022-10-29T21:34:51.880Z,19.04
2022-10-29T21:37:21.507Z,19.05
2022-10-29T21:39:49.474Z,19.06
2022-10-29T21:42:17.211Z,19.10
2022-10-29T21:44:45.109Z,19.14
2022-10-29T21:47:14.307Z,19.18
2022-10-29T21:49:42.114Z,19.21
2022-10-29T21:52:09.879Z,19.24
2022-10-29T21:54:37.718Z,19.22
2022-10-29T21:57:05.980Z,19.21
2022-10-29T21:59:33.856Z,19.22
2022-10-29T22:02:01.864Z,19.19
2022-10-29T22:04:31.099Z,19.17
2022-10-29T22:07:00.053Z,19.14
2022-10-29T22:09:27.900Z,19.12
2022-10-29T22:11:55.720Z,19.11
2022-10-29T22:14:23.697Z,19.10
2022-10-29T22:16:51.527Z,19.08
2022-10-29T22:19:19.435Z,19.06
2022-10-29T22:21:48.661Z,19.05
2022-10-29T22:24:16.512Z,19.02
2022-10-29T22:26:44.329Z,19.00
2022-10-29T22:29:12.130Z,18.97
2022-10-29T22:31:39.936Z,18.96
2022-10-29T22:34:07.906Z,18.93
2022-10-29T22:36:35.773Z,18.91
2022-10-29T22:39:05.175Z,18.89
2022-10-29T22:41:33.070Z,18.88
2022-10-29T22:44:01.214Z,18.86
2022-10-29T22:46:30.389Z,18.87
2022-10-29T22:48:58.507Z,18.86
2022-10-29T22:51:28.346Z,18.88
2022-10-29T22:53:56.422Z,18.85
2022-10-29T22:56:27.194Z,18.87
2022-10-29T22:58:55.626Z,18.85
2022-10-29T23:01:27.245Z,18.88
2022-10-29T23:03:55.132Z,18.86
2022-10-29T23:06:24.648Z,18.86
2022-10-29T23:08:54.063Z,18.88
2022-10-29T23:11:23.635Z,18.86
2022-10-29T23:13:54.372Z,18.83
2022-10-29T23:16:22.600Z,18.83
2022-10-29T23:18:51.028Z,18.85
2022-10-29T23:21:19.694Z,18.90
2022-10-29T23:23:49.698Z,18.93
2022-10-29T23:26:17.559Z,18.96
2022-10-29T23:28:45.690Z,18.98
2022-10-29T23:31:16.389Z,19.01
2022-10-29T23:33:46.092Z,19.03
2022-10-29T23:36:15.409Z,19.03
2022-10-29T23:38:43.400Z,19.04
2022-10-29T23:41:11.823Z,19.05
2022-10-29T23:43:39.787Z,19.05
2022-10-29T23:46:07.614Z,19.07
2022-10-29T23:48:36.871Z,19.07
2022-10-29T23:51:04.868Z,19.08
2022-10-29T23:53:32.911Z,19.08
2022-10-29T23:56:00.920Z,19.10
2022-10-29T23:58:29.253Z,19.09
